createdAt,value
2019-02-28T08:30:43.414Z,42.78
2019-02-28T08:33:16.490Z,43.42
2019-02-28T08:35:49.279Z,36.75
2019-02-28T08:38:20.595Z,41.88
2019-02-28T08:40:52.064Z,52.25
2019-02-28T08:43:27.037Z,47.35
2019-02-28T08:45:56.154Z,48.85
2019-02-28T08:48:31.597Z,43.63
2019-02-28T08:51:00.236Z,42.17
2019-02-28T08:53:32.461Z,47.25
2019-02-28T08:56:03.622Z,52.38
2019-02-28T08:58:37.748Z,47.53
2019-02-28T09:01:07.815Z,46.80
2019-02-28T09:03:40.617Z,58.35
2019-02-28T09:06:11.852Z,49.77
2019-02-28T09:08:46.184Z,49.55
2019-02-28T09:11:20.990Z,46.25
2019-02-28T09:13:53.939Z,48.33
2019-02-28T09:16:27.295Z,46.05
2019-02-28T09:19:00.886Z,53.90
2019-02-28T09:21:33.298Z,46.53
2019-02-28T09:24:05.560Z,46.20
2019-02-28T09:26:37.472Z,47.60
2019-02-28T09:29:10.243Z,48.90
2019-02-28T09:31:43.141Z,49.60
2019-02-28T09:34:14.396Z,46.80
2019-02-28T09:36:45.618Z,52.40
2019-02-28T09:39:20.291Z,47.38
2019-02-28T09:41:58.697Z,49.95
2019-02-28T09:44:34.427Z,55.03
2019-02-28T09:47:05.864Z,48.13
2019-02-28T09:49:44.280Z,42.85
2019-02-28T09:52:18.951Z,45.98
2019-02-28T09:54:59.232Z,53.20
2019-02-28T09:57:34.356Z,53.63
2019-02-28T10:00:23.156Z,49.42
2019-02-28T10:02:56.586Z,51.73
2019-02-28T10:05:31.433Z,52.33
2019-02-28T10:08:09.409Z,57.78
2019-02-28T10:10:42.428Z,54.08
2019-02-28T10:13:18.685Z,50.60
2019-02-28T10:15:52.433Z,52.13
2019-02-28T10:18:24.871Z,51.48
2019-02-28T10:20:59.106Z,47.67
2019-02-28T10:23:31.734Z,45.78
2019-02-28T10:26:07.067Z,48.28
2019-02-28T10:32:24.521Z,57.80
2019-02-28T10:35:05.176Z,50.80
2019-02-28T10:37:46.247Z,51.63
2019-02-28T10:40:25.484Z,46.70
2019-02-28T10:43:04.872Z,52.88
2019-02-28T10:48:16.122Z,45.83
2019-02-28T10:50:53.102Z,48.13
2019-02-28T10:53:31.063Z,44.30
2019-02-28T10:56:03.634Z,48.95
2019-02-28T10:58:37.484Z,46.23
2019-02-28T11:01:12.362Z,45.03
2019-02-28T11:03:43.752Z,43.87
2019-02-28T11:06:16.705Z,54.77
2019-02-28T11:08:48.299Z,41.45
2019-02-28T11:11:21.222Z,45.60
2019-02-28T11:13:55.013Z,41.92
2019-02-28T11:16:29.245Z,42.45
2019-02-28T11:19:01.696Z,45.48
2019-02-28T11:21:37.092Z,48.45
2019-02-28T11:24:09.049Z,47.20
2019-02-28T11:26:44.879Z,43.80
2019-02-28T11:29:17.732Z,41.98
2019-02-28T11:31:50.574Z,44.40
2019-02-28T11:34:22.539Z,41.73
2019-02-28T11:36:56.089Z,36.17
2019-02-28T11:39:30.512Z,36.38
2019-02-28T11:42:01.942Z,33.58
2019-02-28T11:44:34.411Z,32.95
2019-02-28T11:47:08.420Z,29.18
2019-02-28T11:49:39.430Z,34.92
2019-02-28T11:52:11.105Z,34.78
2019-02-28T11:54:45.170Z,37.05
2019-02-28T11:57:17.199Z,30.23
2019-02-28T11:59:49.850Z,30.80
2019-02-28T12:02:26.237Z,36.63
2019-02-28T12:05:00.594Z,33.18
2019-02-28T12:07:35.681Z,33.45
2019-02-28T12:10:09.453Z,36.77
2019-02-28T12:12:44.681Z,35.25
2019-02-28T12:15:20.483Z,34.03
2019-02-28T12:17:52.615Z,32.42
2019-02-28T12:20:27.456Z,28.27
2019-02-28T12:24:29.411Z,30.85
2019-02-28T12:27:06.205Z,32.60
2019-02-28T12:29:40.793Z,31.07
2019-02-28T12:32:14.917Z,28.20
2019-02-28T12:34:50.852Z,31.60
2019-02-28T12:37:34.443Z,29.40
2019-02-28T12:40:10.415Z,25.90
2019-02-28T12:42:42.116Z,26.15
2019-02-28T12:45:24.443Z,39.73
2019-02-28T12:47:55.425Z,24.47
2019-02-28T12:50:29.468Z,25.97
2019-02-28T12:53:01.252Z,30.05
2019-02-28T12:55:35.426Z,28.98
2019-02-28T12:58:08.076Z,32.15
2019-02-28T13:00:41.084Z,29.90
2019-02-28T13:03:12.666Z,32.70
2019-02-28T13:05:48.133Z,25.92
2019-02-28T13:08:19.495Z,32.98
2019-02-28T13:10:50.767Z,30.15
2019-02-28T13:13:27.415Z,25.45
2019-02-28T13:15:58.293Z,25.85
2019-02-28T13:18:32.443Z,38.50
2019-02-28T13:21:06.193Z,26.82
2019-02-28T13:23:38.761Z,27.45
2019-02-28T13:26:10.032Z,30.37
2019-02-28T13:28:41.525Z,25.70
2019-02-28T13:33:14.982Z,28.17
2019-02-28T13:35:47.951Z,47.08
2019-02-28T13:38:19.952Z,34.90
2019-02-28T13:40:51.278Z,34.23
2019-02-28T13:43:22.919Z,35.50
2019-02-28T13:45:55.856Z,28.83
2019-02-28T13:48:33.408Z,33.70
2019-02-28T13:51:08.006Z,33.60
2019-02-28T13:53:39.759Z,35.52
2019-02-28T13:56:11.202Z,36.80
2019-02-28T13:58:45.703Z,33.08
2019-02-28T14:01:20.376Z,33.70
2019-02-28T14:03:53.877Z,41.58
2019-02-28T14:06:25.302Z,42.80
2019-02-28T14:08:58.037Z,39.98
2019-02-28T14:11:30.779Z,35.63
2019-02-28T14:14:06.264Z,37.83
2019-02-28T14:16:38.588Z,52.33
2019-02-28T14:19:11.747Z,41.28
2019-02-28T14:21:44.296Z,41.37
2019-02-28T14:24:15.542Z,39.83
2019-02-28T14:26:49.514Z,40.67
2019-02-28T14:29:22.461Z,36.15
2019-02-28T14:31:53.751Z,41.88
2019-02-28T14:34:26.208Z,35.73
2019-02-28T14:36:58.550Z,40.58
2019-02-28T14:39:32.108Z,37.63
2019-02-28T14:42:06.689Z,42.85
2019-02-28T14:44:37.467Z,38.50
2019-02-28T14:47:08.698Z,42.35
2019-02-28T14:49:43.836Z,39.00
2019-02-28T14:52:15.695Z,36.58
2019-02-28T14:54:47.143Z,41.42
2019-02-28T14:57:19.196Z,37.83
2019-02-28T14:59:51.852Z,42.10
2019-02-28T15:02:28.756Z,39.20
2019-02-28T15:05:01.995Z,33.58
2019-02-28T15:07:38.696Z,40.30
2019-02-28T15:10:15.244Z,41.63
2019-02-28T15:12:46.564Z,38.58
2019-02-28T15:15:20.310Z,41.68
2019-02-28T15:17:51.581Z,38.98
2019-02-28T15:20:22.824Z,41.83
2019-02-28T15:22:55.838Z,38.60
2019-02-28T15:25:29.610Z,36.28
2019-02-28T15:28:01.988Z,36.77
2019-02-28T15:30:35.562Z,45.00
2019-02-28T15:33:10.994Z,38.20
2019-02-28T15:35:42.294Z,44.90
2019-02-28T15:38:13.976Z,51.92
2019-02-28T15:40:47.240Z,50.38
2019-02-28T15:43:20.102Z,46.53
2019-02-28T15:45:52.930Z,45.67
2019-02-28T15:48:25.311Z,45.00
2019-02-28T15:50:56.580Z,44.00
2019-02-28T15:53:28.863Z,42.75
2019-02-28T15:56:00.136Z,45.85
2019-02-28T15:58:31.991Z,45.08
2019-02-28T16:01:04.076Z,49.73
2019-02-28T16:03:35.224Z,43.68
2019-02-28T16:06:06.542Z,55.50
2019-02-28T16:08:37.711Z,49.15
2019-02-28T16:11:08.972Z,47.93
2019-02-28T16:13:40.621Z,42.83
2019-02-28T16:16:11.799Z,50.00
2019-02-28T16:18:43.987Z,49.23
2019-02-28T16:21:16.067Z,52.67
2019-02-28T16:23:48.458Z,52.98
2019-02-28T16:26:21.775Z,62.20
2019-02-28T16:28:54.203Z,58.23
2019-02-28T16:31:25.884Z,65.97
2019-02-28T16:34:07.946Z,63.23
2019-02-28T16:36:32.220Z,69.30
2019-02-28T16:39:04.599Z,71.00
2019-02-28T16:41:36.940Z,77.35
2019-02-28T16:44:08.821Z,69.27
2019-02-28T16:46:40.097Z,72.97
2019-02-28T16:49:14.556Z,66.47
2019-02-28T16:51:48.845Z,51.02
2019-02-28T16:54:22.579Z,54.33
2019-02-28T16:56:54.052Z,53.13
2019-02-28T16:59:28.399Z,58.25
2019-02-28T17:02:00.909Z,64.65
2019-02-28T17:04:41.375Z,56.05
2019-02-28T17:07:20.358Z,57.83
2019-02-28T17:09:52.417Z,52.83
2019-02-28T17:12:31.367Z,51.35
2019-02-28T17:19:46.730Z,51.92
2019-02-28T17:22:19.530Z,54.50
2019-02-28T17:24:51.348Z,53.60
2019-02-28T17:27:24.186Z,51.23
2019-02-28T17:30:01.704Z,49.23
2019-02-28T17:32:36.798Z,50.58
2019-02-28T17:35:09.073Z,50.48
2019-02-28T17:37:42.755Z,52.40
2019-02-28T17:40:15.612Z,51.77
2019-02-28T17:42:49.834Z,57.10
2019-02-28T17:45:23.577Z,55.90
2019-02-28T17:48:15.775Z,58.95
2019-02-28T17:50:56.003Z,51.30
2019-02-28T17:53:48.251Z,62.17
2019-02-28T17:59:04.476Z,51.98
2019-02-28T18:01:55.817Z,41.77
2019-02-28T18:04:56.017Z,31.15
2019-02-28T18:07:30.649Z,24.70
2019-02-28T18:10:04.991Z,31.27
2019-02-28T18:12:44.340Z,28.23
2019-02-28T18:15:23.416Z,24.45
2019-02-28T18:18:15.315Z,24.95
2019-02-28T18:21:00.702Z,17.65
2019-02-28T18:24:00.096Z,17.00
2019-02-28T18:27:11.602Z,19.75
2019-02-28T18:30:02.285Z,18.42
2019-02-28T18:35:08.269Z,13.55
2019-02-28T18:37:39.570Z,14.13
2019-02-28T18:40:10.840Z,13.48
2019-02-28T18:42:42.684Z,12.43
2019-02-28T18:45:15.706Z,21.70
2019-02-28T18:47:47.873Z,18.65
2019-02-28T18:50:19.317Z,14.13
2019-02-28T18:52:50.514Z,16.45
2019-02-28T18:55:21.936Z,16.73
2019-02-28T18:57:53.143Z,18.45
2019-02-28T19:00:24.915Z,20.02
2019-02-28T19:02:56.153Z,15.13
2019-02-28T19:05:27.400Z,18.45
2019-02-28T19:07:58.599Z,16.87
2019-02-28T19:10:29.808Z,18.50
2019-02-28T19:13:01.133Z,18.73
2019-02-28T19:15:32.589Z,18.92
2019-02-28T19:18:05.380Z,24.57
2019-02-28T19:20:36.617Z,21.95
2019-02-28T19:23:07.892Z,27.10
2019-02-28T19:25:39.380Z,40.60
2019-02-28T19:28:14.840Z,24.57
2019-02-28T19:30:47.770Z,25.50
2019-02-28T19:33:19.083Z,24.72
2019-02-28T19:35:50.269Z,28.80
2019-02-28T19:38:21.584Z,30.68
2019-02-28T19:40:52.781Z,25.70
2019-02-28T19:43:23.978Z,29.85
2019-02-28T19:45:56.440Z,30.40
2019-02-28T19:48:27.648Z,31.50
2019-02-28T19:50:58.926Z,32.93
2019-02-28T19:53:30.129Z,34.90
2019-02-28T19:56:02.987Z,35.85
2019-02-28T19:58:35.313Z,40.00
2019-02-28T20:01:06.756Z,34.98
2019-02-28T20:03:38.008Z,37.83
2019-02-28T20:06:10.412Z,39.38
2019-02-28T20:08:42.417Z,39.55
2019-02-28T20:11:13.691Z,35.15
2019-02-28T20:13:45.175Z,33.28
2019-02-28T20:16:18.643Z,38.40
2019-02-28T20:18:50.499Z,32.85
2019-02-28T20:21:21.930Z,36.60
2019-02-28T20:23:53.144Z,34.53
2019-02-28T20:26:24.390Z,30.80
2019-02-28T20:28:55.594Z,31.37
2019-02-28T20:31:27.235Z,37.93
2019-02-28T20:34:34.103Z,37.13
2019-02-28T20:37:06.517Z,32.60
2019-02-28T20:39:38.060Z,35.13
2019-02-28T20:42:09.971Z,35.00
2019-02-28T20:44:42.404Z,37.85
2019-02-28T20:47:14.673Z,36.77
2019-02-28T20:49:45.934Z,40.65
2019-02-28T20:52:20.362Z,42.33
2019-02-28T20:54:51.806Z,47.13
2019-02-28T20:57:23.090Z,37.70
2019-02-28T20:59:54.365Z,40.73
2019-02-28T21:02:25.585Z,47.58
2019-02-28T21:04:57.873Z,47.80
2019-02-28T21:07:29.100Z,46.08
2019-02-28T21:10:00.325Z,43.42
2019-02-28T21:12:31.946Z,48.13
2019-02-28T21:15:03.198Z,45.43
2019-02-28T21:17:34.511Z,40.05
2019-02-28T21:20:12.298Z,43.10
2019-02-28T21:22:43.688Z,44.95
2019-02-28T21:25:18.220Z,39.50
2019-02-28T21:27:51.519Z,39.58
2019-02-28T21:30:26.320Z,44.48
2019-02-28T21:32:57.601Z,39.38
2019-02-28T21:35:28.796Z,40.65
2019-02-28T21:38:00.047Z,39.90
2019-02-28T21:40:31.315Z,49.23
2019-02-28T21:43:02.681Z,45.10
2019-02-28T21:45:33.978Z,42.48
2019-02-28T21:48:05.136Z,45.12
2019-02-28T21:50:36.403Z,39.92
2019-02-28T21:53:08.583Z,41.23
2019-02-28T21:55:39.983Z,48.02
2019-02-28T21:58:11.231Z,40.75
2019-02-28T22:00:42.626Z,42.50
2019-02-28T22:03:13.832Z,43.13
2019-02-28T22:05:47.410Z,46.98
2019-02-28T22:08:19.162Z,51.98
2019-02-28T22:10:50.384Z,50.88
2019-02-28T22:13:24.208Z,45.15
2019-02-28T22:15:56.400Z,48.95
2019-02-28T22:18:27.596Z,42.60
2019-02-28T22:21:00.362Z,45.20
2019-02-28T22:23:33.133Z,45.88
2019-02-28T22:26:04.412Z,44.15
2019-02-28T22:28:35.719Z,41.75
2019-02-28T22:31:17.755Z,45.25
2019-02-28T22:33:51.836Z,42.23
2019-02-28T22:36:24.594Z,41.35
2019-02-28T22:38:56.828Z,40.48
2019-02-28T22:41:28.043Z,38.83
2019-02-28T22:43:59.325Z,36.15
2019-02-28T22:46:30.572Z,39.48
2019-02-28T22:49:01.817Z,41.02
2019-02-28T22:51:34.549Z,38.23
2019-02-28T22:54:05.774Z,33.75
2019-02-28T22:56:37.448Z,31.48
2019-02-28T23:01:47.006Z,36.05
2019-02-28T23:04:20.246Z,34.38
2019-02-28T23:06:51.646Z,38.00
2019-02-28T23:09:22.792Z,34.83
2019-02-28T23:11:55.582Z,33.65
2019-02-28T23:14:28.288Z,34.30
2019-02-28T23:16:59.455Z,33.40
2019-02-28T23:19:30.681Z,32.70
2019-02-28T23:22:02.963Z,26.57
2019-02-28T23:24:34.681Z,39.83
2019-02-28T23:27:17.824Z,26.40
2019-02-28T23:30:01.422Z,19.23
2019-02-28T23:32:46.468Z,18.57
2019-02-28T23:35:21.016Z,23.18
2019-02-28T23:37:53.999Z,17.10
2019-02-28T23:40:25.192Z,26.05
2019-02-28T23:42:57.223Z,13.53
2019-02-28T23:45:28.456Z,14.98
2019-02-28T23:47:59.666Z,13.68
2019-02-28T23:50:30.803Z,15.75
2019-02-28T23:53:12.641Z,20.35
2019-02-28T23:55:44.386Z,23.07
2019-02-28T23:58:17.454Z,12.45
